sensor_id;sensor_type;location;lat;lon;timestamp;temperature;humidity
36244;DHT22;22284;49.956;19.816;2022-07-29T00:00:56;17.95;71.62
36244;DHT22;22284;49.956;19.816;2022-07-29T00:03:57;17.96;71.61
36244;DHT22;22284;49.956;19.816;2022-07-29T00:06:58;17.99;71.63
36244;DHT22;22284;49.956;19.816;2022-07-29T00:09:59;18.02;71.66
36244;DHT22;22284;49.956;19.816;2022-07-29T00:13:01;18.02;71.72
36244;DHT22;22284;49.956;19.816;2022-07-29T00:16:02;18.00;71.83
36244;DHT22;22284;49.956;19.816;2022-07-29T00:19:04;17.98;71.74
36244;DHT22;22284;49.956;19.816;2022-07-29T00:22:05;17.98;71.93
36244;DHT22;22284;49.956;19.816;2022-07-29T00:25:07;17.98;72.49
36244;DHT22;22284;49.956;19.816;2022-07-29T00:28:08;17.93;72.34
36244;DHT22;22284;49.956;19.816;2022-07-29T00:31:09;17.96;72.13
36244;DHT22;22284;49.956;19.816;2022-07-29T00:34:11;17.93;72.22
36244;DHT22;22284;49.956;19.816;2022-07-29T00:37:31;17.92;72.15
36244;DHT22;22284;49.956;19.816;2022-07-29T00:40:31;17.93;72.00
36244;DHT22;22284;49.956;19.816;2022-07-29T00:43:32;17.93;72.24
36244;DHT22;22284;49.956;19.816;2022-07-29T00:46:33;17.93;72.33
36244;DHT22;22284;49.956;19.816;2022-07-29T00:49:35;17.92;72.26
36244;DHT22;22284;49.956;19.816;2022-07-29T00:52:38;17.93;72.22
36244;DHT22;22284;49.956;19.816;2022-07-29T00:55:40;17.89;72.48
36244;DHT22;22284;49.956;19.816;2022-07-29T00:58:41;17.88;72.34
36244;DHT22;22284;49.956;19.816;2022-07-29T01:01:42;17.85;72.31
36244;DHT22;22284;49.956;19.816;2022-07-29T01:04:43;17.84;72.48
36244;DHT22;22284;49.956;19.816;2022-07-29T01:07:45;17.81;72.55
36244;DHT22;22284;49.956;19.816;2022-07-29T01:10:47;17.72;72.61
36244;DHT22;22284;49.956;19.816;2022-07-29T01:13:49;17.70;72.59
36244;DHT22;22284;49.956;19.816;2022-07-29T01:16:59;17.65;72.88
36244;DHT22;22284;49.956;19.816;2022-07-29T01:20:29;17.62;72.89
36244;DHT22;22284;49.956;19.816;2022-07-29T01:23:59;17.57;72.76
36244;DHT22;22284;49.956;19.816;2022-07-29T01:30:27;17.53;72.41
36244;DHT22;22284;49.956;19.816;2022-07-29T01:33:33;17.45;72.46
36244;DHT22;22284;49.956;19.816;2022-07-29T01:43:52;17.40;72.54
36244;DHT22;22284;49.956;19.816;2022-07-29T01:46:57;17.36;72.49
36244;DHT22;22284;49.956;19.816;2022-07-29T01:50:00;17.33;73.25
36244;DHT22;22284;49.956;19.816;2022-07-29T01:53:05;17.27;73.33
36244;DHT22;22284;49.956;19.816;2022-07-29T01:56:09;17.22;73.55
36244;DHT22;22284;49.956;19.816;2022-07-29T01:59:11;17.16;73.66
36244;DHT22;22284;49.956;19.816;2022-07-29T02:02:15;17.09;73.75
36244;DHT22;22284;49.956;19.816;2022-07-29T02:05:19;17.06;73.75
36244;DHT22;22284;49.956;19.816;2022-07-29T02:08:21;17.01;73.62
36244;DHT22;22284;49.956;19.816;2022-07-29T02:11:23;17.01;73.85
36244;DHT22;22284;49.956;19.816;2022-07-29T02:14:26;16.98;73.86
36244;DHT22;22284;49.956;19.816;2022-07-29T02:17:33;16.91;73.79
36244;DHT22;22284;49.956;19.816;2022-07-29T02:20:36;16.91;74.10
36244;DHT22;22284;49.956;19.816;2022-07-29T02:23:38;16.87;73.77
36244;DHT22;22284;49.956;19.816;2022-07-29T02:26:41;16.81;73.91
36244;DHT22;22284;49.956;19.816;2022-07-29T02:29:46;16.78;73.94
36244;DHT22;22284;49.956;19.816;2022-07-29T02:32:48;16.75;73.80
36244;DHT22;22284;49.956;19.816;2022-07-29T02:35:50;16.76;73.70
36244;DHT22;22284;49.956;19.816;2022-07-29T02:38:52;16.72;73.64
36244;DHT22;22284;49.956;19.816;2022-07-29T02:42:07;16.74;73.67
36244;DHT22;22284;49.956;19.816;2022-07-29T02:45:09;16.74;73.58
36244;DHT22;22284;49.956;19.816;2022-07-29T02:48:14;16.75;73.51
36244;DHT22;22284;49.956;19.816;2022-07-29T02:51:27;16.74;73.61
36244;DHT22;22284;49.956;19.816;2022-07-29T02:55:00;16.71;73.56
36244;DHT22;22284;49.956;19.816;2022-07-29T02:58:05;16.70;73.79
36244;DHT22;22284;49.956;19.816;2022-07-29T03:01:23;16.68;73.78
36244;DHT22;22284;49.956;19.816;2022-07-29T03:04:23;16.60;73.75
36244;DHT22;22284;49.956;19.816;2022-07-29T03:07:25;16.53;74.01
36244;DHT22;22284;49.956;19.816;2022-07-29T03:10:26;16.50;74.03
36244;DHT22;22284;49.956;19.816;2022-07-29T03:13:29;16.47;74.14
36244;DHT22;22284;49.956;19.816;2022-07-29T03:16:30;16.46;74.02
36244;DHT22;22284;49.956;19.816;2022-07-29T03:19:33;16.46;74.06
36244;DHT22;22284;49.956;19.816;2022-07-29T03:22:39;16.47;74.17
36244;DHT22;22284;49.956;19.816;2022-07-29T03:25:43;16.47;74.09
36244;DHT22;22284;49.956;19.816;2022-07-29T03:28:44;16.51;74.02
36244;DHT22;22284;49.956;19.816;2022-07-29T03:31:45;16.50;73.97
36244;DHT22;22284;49.956;19.816;2022-07-29T03:34:46;16.53;74.08
36244;DHT22;22284;49.956;19.816;2022-07-29T03:37:47;16.50;74.16
36244;DHT22;22284;49.956;19.816;2022-07-29T03:40:56;16.51;74.02
36244;DHT22;22284;49.956;19.816;2022-07-29T03:43:58;16.53;73.99
36244;DHT22;22284;49.956;19.816;2022-07-29T03:47:01;16.55;73.91
36244;DHT22;22284;49.956;19.816;2022-07-29T03:50:08;16.57;73.90
36244;DHT22;22284;49.956;19.816;2022-07-29T03:53:12;16.61;73.95
36244;DHT22;22284;49.956;19.816;2022-07-29T03:56:15;16.68;73.96
36244;DHT22;22284;49.956;19.816;2022-07-29T03:59:18;16.72;73.82
36244;DHT22;22284;49.956;19.816;2022-07-29T04:02:20;16.76;73.79
36244;DHT22;22284;49.956;19.816;2022-07-29T04:05:22;16.85;73.64
36244;DHT22;22284;49.956;19.816;2022-07-29T04:08:23;16.89;73.59
36244;DHT22;22284;49.956;19.816;2022-07-29T04:11:24;16.88;73.58
36244;DHT22;22284;49.956;19.816;2022-07-29T04:14:25;16.91;73.68
36244;DHT22;22284;49.956;19.816;2022-07-29T04:17:26;16.95;73.55
36244;DHT22;22284;49.956;19.816;2022-07-29T04:20:27;16.96;73.51
36244;DHT22;22284;49.956;19.816;2022-07-29T04:23:29;17.03;73.76
36244;DHT22;22284;49.956;19.816;2022-07-29T04:26:33;17.06;73.70
36244;DHT22;22284;49.956;19.816;2022-07-29T04:29:34;17.06;73.78
36244;DHT22;22284;49.956;19.816;2022-07-29T04:32:35;17.09;73.20
36244;DHT22;22284;49.956;19.816;2022-07-29T04:35:37;17.12;73.04
36244;DHT22;22284;49.956;19.816;2022-07-29T04:38:38;17.10;72.92
36244;DHT22;22284;49.956;19.816;2022-07-29T04:41:39;17.16;72.80
36244;DHT22;22284;49.956;19.816;2022-07-29T04:44:40;17.17;72.70
36244;DHT22;22284;49.956;19.816;2022-07-29T04:47:41;17.20;72.63
36244;DHT22;22284;49.956;19.816;2022-07-29T04:50:43;17.23;72.59
36244;DHT22;22284;49.956;19.816;2022-07-29T04:53:44;17.26;72.47
36244;DHT22;22284;49.956;19.816;2022-07-29T04:56:46;17.33;72.19
36244;DHT22;22284;49.956;19.816;2022-07-29T04:59:47;17.33;71.96
36244;DHT22;22284;49.956;19.816;2022-07-29T05:02:49;17.38;71.84
36244;DHT22;22284;49.956;19.816;2022-07-29T05:05:50;17.47;71.68
36244;DHT22;22284;49.956;19.816;2022-07-29T05:08:51;17.50;71.50
36244;DHT22;22284;49.956;19.816;2022-07-29T05:11:52;17.54;71.13
36244;DHT22;22284;49.956;19.816;2022-07-29T05:14:53;17.58;70.86
36244;DHT22;22284;49.956;19.816;2022-07-29T05:17:54;17.62;70.97
36244;DHT22;22284;49.956;19.816;2022-07-29T05:20:55;17.68;70.76
36244;DHT22;22284;49.956;19.816;2022-07-29T05:23:56;17.72;70.77
36244;DHT22;22284;49.956;19.816;2022-07-29T05:26:57;17.79;70.79
36244;DHT22;22284;49.956;19.816;2022-07-29T05:29:58;17.88;70.80
36244;DHT22;22284;49.956;19.816;2022-07-29T05:32:59;17.95;70.45
36244;DHT22;22284;49.956;19.816;2022-07-29T05:36:00;17.99;70.41
36244;DHT22;22284;49.956;19.816;2022-07-29T05:39:01;18.06;70.37
36244;DHT22;22284;49.956;19.816;2022-07-29T05:42:03;18.12;70.02
36244;DHT22;22284;49.956;19.816;2022-07-29T05:45:05;18.16;69.97
36244;DHT22;22284;49.956;19.816;2022-07-29T05:48:06;18.16;69.46
36244;DHT22;22284;49.956;19.816;2022-07-29T05:51:07;18.20;69.83
36244;DHT22;22284;49.956;19.816;2022-07-29T05:54:08;18.27;69.74
36244;DHT22;22284;49.956;19.816;2022-07-29T05:57:19;18.33;69.66
36244;DHT22;22284;49.956;19.816;2022-07-29T06:00:22;18.43;69.79
36244;DHT22;22284;49.956;19.816;2022-07-29T06:03:23;18.47;69.58
36244;DHT22;22284;49.956;19.816;2022-07-29T06:06:24;18.58;69.65
36244;DHT22;22284;49.956;19.816;2022-07-29T06:09:25;18.67;69.54
36244;DHT22;22284;49.956;19.816;2022-07-29T06:12:26;18.76;69.64
36244;DHT22;22284;49.956;19.816;2022-07-29T06:15:27;18.85;69.28
36244;DHT22;22284;49.956;19.816;2022-07-29T06:18:28;18.95;68.93
36244;DHT22;22284;49.956;19.816;2022-07-29T06:21:29;19.00;68.83
36244;DHT22;22284;49.956;19.816;2022-07-29T06:24:30;19.10;68.73
36244;DHT22;22284;49.956;19.816;2022-07-29T06:27:31;19.15;68.64
36244;DHT22;22284;49.956;19.816;2022-07-29T06:30:32;19.24;68.38
36244;DHT22;22284;49.956;19.816;2022-07-29T06:33:33;19.33;68.10
36244;DHT22;22284;49.956;19.816;2022-07-29T06:36:37;19.44;68.04
36244;DHT22;22284;49.956;19.816;2022-07-29T06:39:38;19.51;67.65
36244;DHT22;22284;49.956;19.816;2022-07-29T06:42:43;19.61;67.46
36244;DHT22;22284;49.956;19.816;2022-07-29T06:45:44;19.69;66.83
36244;DHT22;22284;49.956;19.816;2022-07-29T06:48:46;19.76;67.19
36244;DHT22;22284;49.956;19.816;2022-07-29T06:51:48;19.87;67.16
36244;DHT22;22284;49.956;19.816;2022-07-29T06:54:48;19.96;67.08
36244;DHT22;22284;49.956;19.816;2022-07-29T06:57:50;20.04;67.07
36244;DHT22;22284;49.956;19.816;2022-07-29T07:00:51;20.14;66.30
36244;DHT22;22284;49.956;19.816;2022-07-29T07:03:52;20.19;66.58
36244;DHT22;22284;49.956;19.816;2022-07-29T07:06:53;20.25;66.03
36244;DHT22;22284;49.956;19.816;2022-07-29T07:09:55;20.32;66.33
36244;DHT22;22284;49.956;19.816;2022-07-29T07:12:56;20.42;66.32
36244;DHT22;22284;49.956;19.816;2022-07-29T07:15:57;20.49;66.02
36244;DHT22;22284;49.956;19.816;2022-07-29T07:18:59;20.51;65.78
36244;DHT22;22284;49.956;19.816;2022-07-29T07:22:00;20.56;65.74
36244;DHT22;22284;49.956;19.816;2022-07-29T07:25:01;20.62;65.76
36244;DHT22;22284;49.956;19.816;2022-07-29T07:28:02;20.66;65.94
36244;DHT22;22284;49.956;19.816;2022-07-29T07:31:04;20.78;66.00
36244;DHT22;22284;49.956;19.816;2022-07-29T07:34:05;20.84;65.89
36244;DHT22;22284;49.956;19.816;2022-07-29T07:37:06;20.92;65.88
36244;DHT22;22284;49.956;19.816;2022-07-29T07:40:10;21.01;65.71
36244;DHT22;22284;49.956;19.816;2022-07-29T07:43:12;21.09;65.42
36244;DHT22;22284;49.956;19.816;2022-07-29T07:46:13;21.15;65.23
36244;DHT22;22284;49.956;19.816;2022-07-29T07:49:14;21.24;65.07
36244;DHT22;22284;49.956;19.816;2022-07-29T07:52:17;21.35;65.04
36244;DHT22;22284;49.956;19.816;2022-07-29T07:55:19;21.44;64.96
36244;DHT22;22284;49.956;19.816;2022-07-29T07:58:20;21.55;64.64
36244;DHT22;22284;49.956;19.816;2022-07-29T08:01:20;21.65;64.37
36244;DHT22;22284;49.956;19.816;2022-07-29T08:04:23;21.73;64.48
36244;DHT22;22284;49.956;19.816;2022-07-29T08:07:25;21.86;64.55
36244;DHT22;22284;49.956;19.816;2022-07-29T08:10:26;21.95;63.39
36244;DHT22;22284;49.956;19.816;2022-07-29T08:13:46;22.03;64.14
36244;DHT22;22284;49.956;19.816;2022-07-29T08:16:48;22.14;64.24
36244;DHT22;22284;49.956;19.816;2022-07-29T08:19:48;22.21;64.22
36244;DHT22;22284;49.956;19.816;2022-07-29T08:22:50;22.31;63.72
36244;DHT22;22284;49.956;19.816;2022-07-29T08:25:52;22.39;64.03
36244;DHT22;22284;49.956;19.816;2022-07-29T08:28:53;22.55;64.01
36244;DHT22;22284;49.956;19.816;2022-07-29T08:31:54;22.65;63.65
36244;DHT22;22284;49.956;19.816;2022-07-29T08:34:55;22.78;63.20
36244;DHT22;22284;49.956;19.816;2022-07-29T08:37:56;22.89;63.14
36244;DHT22;22284;49.956;19.816;2022-07-29T08:41:00;22.98;62.69
36244;DHT22;22284;49.956;19.816;2022-07-29T08:44:01;23.09;62.76
36244;DHT22;22284;49.956;19.816;2022-07-29T08:47:03;23.18;62.08
36244;DHT22;22284;49.956;19.816;2022-07-29T08:50:04;23.25;62.55
36244;DHT22;22284;49.956;19.816;2022-07-29T08:53:09;23.34;62.50
36244;DHT22;22284;49.956;19.816;2022-07-29T08:56:15;23.48;61.91
36244;DHT22;22284;49.956;19.816;2022-07-29T08:59:21;23.53;62.09
36244;DHT22;22284;49.956;19.816;2022-07-29T09:02:23;23.60;62.05
36244;DHT22;22284;49.956;19.816;2022-07-29T09:05:26;23.72;62.11
36244;DHT22;22284;49.956;19.816;2022-07-29T09:08:28;23.77;61.62
36244;DHT22;22284;49.956;19.816;2022-07-29T09:11:32;23.79;61.41
36244;DHT22;22284;49.956;19.816;2022-07-29T09:14:34;23.86;61.61
36244;DHT22;22284;49.956;19.816;2022-07-29T09:17:47;23.94;61.81
36244;DHT22;22284;49.956;19.816;2022-07-29T09:20:52;24.05;61.65
36244;DHT22;22284;49.956;19.816;2022-07-29T09:24:13;24.11;60.70
36244;DHT22;22284;49.956;19.816;2022-07-29T09:27:23;24.18;61.00
36244;DHT22;22284;49.956;19.816;2022-07-29T09:30:26;24.20;60.45
36244;DHT22;22284;49.956;19.816;2022-07-29T09:33:34;24.27;60.49
36244;DHT22;22284;49.956;19.816;2022-07-29T09:36:45;24.32;60.92
36244;DHT22;22284;49.956;19.816;2022-07-29T09:39:46;24.39;60.17
36244;DHT22;22284;49.956;19.816;2022-07-29T09:42:48;24.39;58.91
36244;DHT22;22284;49.956;19.816;2022-07-29T09:45:49;24.42;59.58
36244;DHT22;22284;49.956;19.816;2022-07-29T09:49:11;24.47;59.87
36244;DHT22;22284;49.956;19.816;2022-07-29T09:52:13;24.52;59.94
36244;DHT22;22284;49.956;19.816;2022-07-29T09:55:14;24.58;59.65
36244;DHT22;22284;49.956;19.816;2022-07-29T09:58:21;24.62;59.87
36244;DHT22;22284;49.956;19.816;2022-07-29T10:01:29;24.72;60.11
36244;DHT22;22284;49.956;19.816;2022-07-29T10:04:42;24.80;59.95
36244;DHT22;22284;49.956;19.816;2022-07-29T10:07:56;24.90;59.59
36244;DHT22;22284;49.956;19.816;2022-07-29T10:14:12;25.09;59.40
36244;DHT22;22284;49.956;19.816;2022-07-29T10:17:14;25.17;59.35
36244;DHT22;22284;49.956;19.816;2022-07-29T10:20:16;25.19;58.82
36244;DHT22;22284;49.956;19.816;2022-07-29T10:23:17;25.25;58.33
36244;DHT22;22284;49.956;19.816;2022-07-29T10:26:20;25.27;57.83
36244;DHT22;22284;49.956;19.816;2022-07-29T10:29:21;25.28;58.06
36244;DHT22;22284;49.956;19.816;2022-07-29T10:32:34;25.32;58.26
36244;DHT22;22284;49.956;19.816;2022-07-29T10:39:39;25.41;57.29
36244;DHT22;22284;49.956;19.816;2022-07-29T10:42:40;25.45;57.26
36244;DHT22;22284;49.956;19.816;2022-07-29T10:45:42;25.50;57.57
36244;DHT22;22284;49.956;19.816;2022-07-29T10:49:11;25.50;56.96
36244;DHT22;22284;49.956;19.816;2022-07-29T10:52:12;25.49;57.63
36244;DHT22;22284;49.956;19.816;2022-07-29T10:55:34;25.45;56.87
36244;DHT22;22284;49.956;19.816;2022-07-29T10:58:37;25.46;57.03
36244;DHT22;22284;49.956;19.816;2022-07-29T11:01:38;25.48;57.00
36244;DHT22;22284;49.956;19.816;2022-07-29T11:11:32;25.61;56.77
36244;DHT22;22284;49.956;19.816;2022-07-29T11:21:02;25.84;56.54
36244;DHT22;22284;49.956;19.816;2022-07-29T11:24:19;25.97;56.67
36244;DHT22;22284;49.956;19.816;2022-07-29T11:27:22;26.09;55.83
36244;DHT22;22284;49.956;19.816;2022-07-29T11:30:50;26.20;55.76
36244;DHT22;22284;49.956;19.816;2022-07-29T11:33:52;26.32;56.05
36244;DHT22;22284;49.956;19.816;2022-07-29T11:40:15;26.48;55.51
36244;DHT22;22284;49.956;19.816;2022-07-29T11:46:48;26.52;54.82
36244;DHT22;22284;49.956;19.816;2022-07-29T11:49:54;26.53;54.45
36244;DHT22;22284;49.956;19.816;2022-07-29T11:52:55;26.53;54.95
36244;DHT22;22284;49.956;19.816;2022-07-29T11:55:59;26.53;55.20
36244;DHT22;22284;49.956;19.816;2022-07-29T11:59:04;26.55;55.66
36244;DHT22;22284;49.956;19.816;2022-07-29T12:02:07;26.56;53.84
36244;DHT22;22284;49.956;19.816;2022-07-29T12:05:10;26.56;54.61
36244;DHT22;22284;49.956;19.816;2022-07-29T12:08:22;26.55;54.37
36244;DHT22;22284;49.956;19.816;2022-07-29T12:11:23;26.53;54.89
36244;DHT22;22284;49.956;19.816;2022-07-29T12:14:32;26.53;54.63
36244;DHT22;22284;49.956;19.816;2022-07-29T12:17:34;26.55;54.86
36244;DHT22;22284;49.956;19.816;2022-07-29T12:20:35;26.60;55.35
36244;DHT22;22284;49.956;19.816;2022-07-29T12:23:36;26.63;54.91
36244;DHT22;22284;49.956;19.816;2022-07-29T12:26:51;26.60;54.80
36244;DHT22;22284;49.956;19.816;2022-07-29T12:29:58;26.63;54.50
36244;DHT22;22284;49.956;19.816;2022-07-29T12:33:01;26.59;54.30
36244;DHT22;22284;49.956;19.816;2022-07-29T12:36:03;26.63;54.60
36244;DHT22;22284;49.956;19.816;2022-07-29T12:39:04;26.71;54.49
36244;DHT22;22284;49.956;19.816;2022-07-29T12:42:15;26.74;53.90
36244;DHT22;22284;49.956;19.816;2022-07-29T12:45:28;26.73;53.86
36244;DHT22;22284;49.956;19.816;2022-07-29T12:48:41;26.73;54.22
36244;DHT22;22284;49.956;19.816;2022-07-29T12:51:42;26.76;53.55
36244;DHT22;22284;49.956;19.816;2022-07-29T12:54:47;26.73;53.73
36244;DHT22;22284;49.956;19.816;2022-07-29T12:57:50;26.70;53.93
36244;DHT22;22284;49.956;19.816;2022-07-29T13:01:15;26.66;52.44
36244;DHT22;22284;49.956;19.816;2022-07-29T13:04:29;26.67;51.87
36244;DHT22;22284;49.956;19.816;2022-07-29T13:07:33;26.63;52.69
36244;DHT22;22284;49.956;19.816;2022-07-29T13:10:35;26.60;52.54
36244;DHT22;22284;49.956;19.816;2022-07-29T13:13:50;26.62;52.63
36244;DHT22;22284;49.956;19.816;2022-07-29T13:17:14;26.67;52.90
36244;DHT22;22284;49.956;19.816;2022-07-29T13:20:17;26.73;52.77
36244;DHT22;22284;49.956;19.816;2022-07-29T13:23:18;26.73;52.53
36244;DHT22;22284;49.956;19.816;2022-07-29T13:26:19;26.80;52.34
36244;DHT22;22284;49.956;19.816;2022-07-29T13:29:20;26.86;52.16
36244;DHT22;22284;49.956;19.816;2022-07-29T13:32:22;26.98;52.08
36244;DHT22;22284;49.956;19.816;2022-07-29T13:35:23;27.04;51.68
36244;DHT22;22284;49.956;19.816;2022-07-29T13:38:24;27.10;51.56
36244;DHT22;22284;49.956;19.816;2022-07-29T13:41:25;27.10;50.11
36244;DHT22;22284;49.956;19.816;2022-07-29T13:44:26;27.13;49.82
36244;DHT22;22284;49.956;19.816;2022-07-29T13:47:28;27.13;49.96
36244;DHT22;22284;49.956;19.816;2022-07-29T13:50:32;27.11;50.20
36244;DHT22;22284;49.956;19.816;2022-07-29T13:53:33;27.11;50.54
36244;DHT22;22284;49.956;19.816;2022-07-29T13:56:34;27.13;50.46
36244;DHT22;22284;49.956;19.816;2022-07-29T13:59:35;27.10;49.66
36244;DHT22;22284;49.956;19.816;2022-07-29T14:02:36;27.07;50.15
36244;DHT22;22284;49.956;19.816;2022-07-29T14:05:38;27.07;49.97
36244;DHT22;22284;49.956;19.816;2022-07-29T14:08:39;27.03;49.15
36244;DHT22;22284;49.956;19.816;2022-07-29T14:11:40;27.01;49.93
36244;DHT22;22284;49.956;19.816;2022-07-29T14:14:41;26.97;50.08
36244;DHT22;22284;49.956;19.816;2022-07-29T14:17:43;26.97;50.02
36244;DHT22;22284;49.956;19.816;2022-07-29T14:20:44;26.96;50.26
36244;DHT22;22284;49.956;19.816;2022-07-29T14:23:45;27.00;50.51
36244;DHT22;22284;49.956;19.816;2022-07-29T14:26:46;26.98;50.23
36244;DHT22;22284;49.956;19.816;2022-07-29T14:29:47;26.97;50.53
36244;DHT22;22284;49.956;19.816;2022-07-29T14:32:48;26.89;50.25
36244;DHT22;22284;49.956;19.816;2022-07-29T14:35:49;26.79;50.55
36244;DHT22;22284;49.956;19.816;2022-07-29T14:38:49;26.71;50.75
36244;DHT22;22284;49.956;19.816;2022-07-29T14:41:50;26.63;51.07
36244;DHT22;22284;49.956;19.816;2022-07-29T14:44:51;26.55;51.44
36244;DHT22;22284;49.956;19.816;2022-07-29T14:47:52;26.45;51.59
36244;DHT22;22284;49.956;19.816;2022-07-29T14:50:53;26.36;51.83
36244;DHT22;22284;49.956;19.816;2022-07-29T14:53:56;26.30;52.17
36244;DHT22;22284;49.956;19.816;2022-07-29T14:56:57;26.23;52.35
36244;DHT22;22284;49.956;19.816;2022-07-29T14:59:58;26.15;52.68
36244;DHT22;22284;49.956;19.816;2022-07-29T15:03:00;26.08;52.67
36244;DHT22;22284;49.956;19.816;2022-07-29T15:06:01;26.05;52.73
36244;DHT22;22284;49.956;19.816;2022-07-29T15:09:02;25.97;52.79
36244;DHT22;22284;49.956;19.816;2022-07-29T15:12:03;25.89;52.99
36244;DHT22;22284;49.956;19.816;2022-07-29T15:15:05;25.83;53.16
36244;DHT22;22284;49.956;19.816;2022-07-29T15:18:07;25.80;53.39
36244;DHT22;22284;49.956;19.816;2022-07-29T15:21:09;25.76;53.57
36244;DHT22;22284;49.956;19.816;2022-07-29T15:24:10;25.69;53.82
36244;DHT22;22284;49.956;19.816;2022-07-29T15:27:11;25.66;53.98
36244;DHT22;22284;49.956;19.816;2022-07-29T15:30:14;25.59;54.86
36244;DHT22;22284;49.956;19.816;2022-07-29T15:33:17;25.52;55.27
36244;DHT22;22284;49.956;19.816;2022-07-29T15:36:18;25.45;55.73
36244;DHT22;22284;49.956;19.816;2022-07-29T15:39:20;25.38;56.22
36244;DHT22;22284;49.956;19.816;2022-07-29T15:42:21;25.31;57.01
36244;DHT22;22284;49.956;19.816;2022-07-29T15:45:22;25.24;57.94
36244;DHT22;22284;49.956;19.816;2022-07-29T15:48:23;25.14;59.57
36244;DHT22;22284;49.956;19.816;2022-07-29T15:51:25;24.99;60.83
36244;DHT22;22284;49.956;19.816;2022-07-29T15:54:27;24.87;61.75
36244;DHT22;22284;49.956;19.816;2022-07-29T15:57:28;24.75;62.80
36244;DHT22;22284;49.956;19.816;2022-07-29T16:00:29;24.65;63.76
36244;DHT22;22284;49.956;19.816;2022-07-29T16:03:30;24.54;64.74
36244;DHT22;22284;49.956;19.816;2022-07-29T16:06:31;24.44;65.59
36244;DHT22;22284;49.956;19.816;2022-07-29T16:09:32;24.34;66.71
36244;DHT22;22284;49.956;19.816;2022-07-29T16:12:33;24.20;67.55
36244;DHT22;22284;49.956;19.816;2022-07-29T16:15:33;24.10;70.21
36244;DHT22;22284;49.956;19.816;2022-07-29T16:18:34;23.89;71.66
36244;DHT22;22284;49.956;19.816;2022-07-29T16:21:36;23.66;72.00
36244;DHT22;22284;49.956;19.816;2022-07-29T16:24:38;23.51;72.36
36244;DHT22;22284;49.956;19.816;2022-07-29T16:27:39;23.37;72.59
36244;DHT22;22284;49.956;19.816;2022-07-29T16:30:40;23.23;73.29
36244;DHT22;22284;49.956;19.816;2022-07-29T16:33:41;23.13;74.11
36244;DHT22;22284;49.956;19.816;2022-07-29T16:36:42;22.98;74.62
36244;DHT22;22284;49.956;19.816;2022-07-29T16:39:43;22.83;75.42
36244;DHT22;22284;49.956;19.816;2022-07-29T16:42:44;22.75;76.18
36244;DHT22;22284;49.956;19.816;2022-07-29T16:45:45;22.56;76.91
36244;DHT22;22284;49.956;19.816;2022-07-29T16:48:47;22.41;78.26
36244;DHT22;22284;49.956;19.816;2022-07-29T16:51:48;22.25;78.23
36244;DHT22;22284;49.956;19.816;2022-07-29T16:54:49;22.14;77.85
36244;DHT22;22284;49.956;19.816;2022-07-29T16:57:50;22.01;78.49
36244;DHT22;22284;49.956;19.816;2022-07-29T17:00:52;21.92;79.62
36244;DHT22;22284;49.956;19.816;2022-07-29T17:03:53;21.79;78.85
36244;DHT22;22284;49.956;19.816;2022-07-29T17:07:06;21.69;79.53
36244;DHT22;22284;49.956;19.816;2022-07-29T17:10:09;21.61;79.24
36244;DHT22;22284;49.956;19.816;2022-07-29T17:13:10;21.55;79.70
36244;DHT22;22284;49.956;19.816;2022-07-29T17:16:11;21.48;80.67
36244;DHT22;22284;49.956;19.816;2022-07-29T17:19:12;21.44;80.76
36244;DHT22;22284;49.956;19.816;2022-07-29T17:22:13;21.34;80.54
36244;DHT22;22284;49.956;19.816;2022-07-29T17:25:14;21.27;80.67
36244;DHT22;22284;49.956;19.816;2022-07-29T17:28:15;21.18;81.13
36244;DHT22;22284;49.956;19.816;2022-07-29T17:31:16;21.07;80.71
36244;DHT22;22284;49.956;19.816;2022-07-29T17:34:17;21.00;80.43
36244;DHT22;22284;49.956;19.816;2022-07-29T17:37:18;20.94;80.83
36244;DHT22;22284;49.956;19.816;2022-07-29T17:40:19;20.89;80.41
36244;DHT22;22284;49.956;19.816;2022-07-29T17:43:20;20.84;80.31
36244;DHT22;22284;49.956;19.816;2022-07-29T17:46:23;20.83;80.09
36244;DHT22;22284;49.956;19.816;2022-07-29T17:49:26;20.80;80.30
36244;DHT22;22284;49.956;19.816;2022-07-29T17:52:27;20.78;80.43
36244;DHT22;22284;49.956;19.816;2022-07-29T17:55:28;20.78;80.48
36244;DHT22;22284;49.956;19.816;2022-07-29T17:58:30;20.76;80.96
36244;DHT22;22284;49.956;19.816;2022-07-29T18:01:32;20.75;81.32
36244;DHT22;22284;49.956;19.816;2022-07-29T18:04:34;20.71;81.96
36244;DHT22;22284;49.956;19.816;2022-07-29T18:07:34;20.63;83.09
36244;DHT22;22284;49.956;19.816;2022-07-29T18:10:36;20.60;82.59
36244;DHT22;22284;49.956;19.816;2022-07-29T18:13:37;20.56;83.00
36244;DHT22;22284;49.956;19.816;2022-07-29T18:16:38;20.55;83.04
36244;DHT22;22284;49.956;19.816;2022-07-29T18:19:40;20.47;83.42
36244;DHT22;22284;49.956;19.816;2022-07-29T18:22:41;20.34;83.85
36244;DHT22;22284;49.956;19.816;2022-07-29T18:25:41;20.23;83.47
36244;DHT22;22284;49.956;19.816;2022-07-29T18:28:42;20.19;83.48
36244;DHT22;22284;49.956;19.816;2022-07-29T18:31:43;20.10;83.75
36244;DHT22;22284;49.956;19.816;2022-07-29T18:34:44;20.02;83.23
36244;DHT22;22284;49.956;19.816;2022-07-29T18:37:45;19.92;82.81
36244;DHT22;22284;49.956;19.816;2022-07-29T18:40:46;19.85;83.34
36244;DHT22;22284;49.956;19.816;2022-07-29T18:43:48;19.76;83.05
36244;DHT22;22284;49.956;19.816;2022-07-29T18:46:50;19.73;82.54
36244;DHT22;22284;49.956;19.816;2022-07-29T18:49:51;19.72;82.84
36244;DHT22;22284;49.956;19.816;2022-07-29T18:52:52;19.70;82.55
36244;DHT22;22284;49.956;19.816;2022-07-29T18:55:54;19.73;82.68
36244;DHT22;22284;49.956;19.816;2022-07-29T18:58:57;19.70;82.38
36244;DHT22;22284;49.956;19.816;2022-07-29T19:01:58;19.68;82.37
36244;DHT22;22284;49.956;19.816;2022-07-29T19:04:59;19.65;82.41
36244;DHT22;22284;49.956;19.816;2022-07-29T19:08:00;19.62;82.84
36244;DHT22;22284;49.956;19.816;2022-07-29T19:11:01;19.58;83.23
36244;DHT22;22284;49.956;19.816;2022-07-29T19:14:04;19.55;83.64
36244;DHT22;22284;49.956;19.816;2022-07-29T19:17:05;19.52;83.67
36244;DHT22;22284;49.956;19.816;2022-07-29T19:20:07;19.52;83.40
36244;DHT22;22284;49.956;19.816;2022-07-29T19:23:08;19.54;83.47
36244;DHT22;22284;49.956;19.816;2022-07-29T19:26:08;19.54;83.62
36244;DHT22;22284;49.956;19.816;2022-07-29T19:29:09;19.52;84.03
36244;DHT22;22284;49.956;19.816;2022-07-29T19:32:11;19.51;84.11
36244;DHT22;22284;49.956;19.816;2022-07-29T19:35:13;19.45;84.65